Time;durP1;ratioP1;P1;durP2;ratioP2;P2;SDS_P1;SDS_P2;PMS_P1;PMS_P2;Temp;Humidity;BMP_temperature;BMP_pressure;BME280_temperature;BME280_humidity;BME280_pressure;Samples;Min_cycle;Max_cycle;Signal;HPM_P1;HPM_P2
2023/05/24 00:01:13;;;;;;;7.13;5.85;;;;;;;10.31;100.00;95010.75;4961548;28;20030;-74
2023/05/24 00:03:38;;;;;;;6.97;6.18;;;;;;;10.28;100.00;94992.97;4959671;28;20132;-75
2023/05/24 00:06:05;;;;;;;7.00;5.55;;;;;;;10.26;100.00;94984.56;4961439;28;20592;-74
2023/05/24 00:08:33;;;;;;;10.55;5.82;;;;;;;10.27;100.00;94981.00;4960682;28;20031;-74
2023/05/24 00:10:59;;;;;;;7.90;6.57;;;;;;;10.30;100.00;94980.69;4960398;28;20306;-74
2023/05/24 00:13:24;;;;;;;7.00;6.20;;;;;;;10.39;100.00;94974.50;4960890;28;20378;-74
2023/05/24 00:15:50;;;;;;;6.65;6.05;;;;;;;10.31;100.00;94964.97;4959497;28;20035;-75
2023/05/24 00:18:18;;;;;;;6.78;6.18;;;;;;;10.31;100.00;94964.16;4961659;28;20683;-74
2023/05/24 00:20:44;;;;;;;7.68;5.85;;;;;;;10.32;100.00;94951.06;4959179;28;20033;-74
2023/05/24 00:23:10;;;;;;;8.25;7.53;;;;;;;10.28;100.00;94957.53;4963817;28;20027;-74
2023/05/24 00:25:35;;;;;;;7.95;7.25;;;;;;;10.23;100.00;94952.06;4963578;28;20114;-75
2023/05/24 00:28:01;;;;;;;7.57;6.95;;;;;;;10.17;100.00;94963.09;4963768;28;20539;-74
2023/05/24 00:30:26;;;;;;;9.25;8.35;;;;;;;10.23;100.00;94977.13;4964537;28;20473;-74
2023/05/24 00:32:52;;;;;;;9.07;8.18;;;;;;;10.27;100.00;94984.41;4963077;28;20034;-74
2023/05/24 00:35:17;;;;;;;8.63;7.40;;;;;;;10.09;100.00;94988.97;4965056;28;20027;-75
2023/05/24 00:37:44;;;;;;;7.68;7.07;;;;;;;10.10;100.00;95000.13;4962836;28;20065;-75
2023/05/24 00:40:11;;;;;;;8.00;7.20;;;;;;;10.11;100.00;94992.22;4964887;28;20082;-75
2023/05/24 00:42:36;;;;;;;11.70;7.32;;;;;;;10.11;100.00;94983.63;4963028;28;20136;-75
2023/05/24 00:45:02;;;;;;;6.97;6.30;;;;;;;10.01;100.00;94989.81;4964405;28;20492;-75
2023/05/24 00:47:28;;;;;;;9.98;7.40;;;;;;;9.92;100.00;94987.41;4963784;28;20038;-75
2023/05/24 00:49:53;;;;;;;7.25;6.63;;;;;;;9.87;100.00;94992.25;4946196;28;20098;-75
2023/05/24 00:52:19;;;;;;;7.60;6.90;;;;;;;9.84;100.00;94997.75;4964851;28;20038;-75
2023/05/24 00:54:45;;;;;;;7.07;6.50;;;;;;;9.67;100.00;94993.56;4962634;28;20018;-75
2023/05/24 00:57:12;;;;;;;9.38;6.55;;;;;;;9.54;100.00;95000.06;4964987;28;20113;-75
2023/05/24 00:59:39;;;;;;;11.38;7.30;;;;;;;9.64;100.00;95015.41;4962294;28;20078;-74
2023/05/24 01:02:04;;;;;;;7.10;6.55;;;;;;;9.70;100.00;95014.75;4946896;28;20301;-75
2023/05/24 01:04:31;;;;;;;8.07;7.28;;;;;;;9.81;100.00;95019.59;4963061;28;20023;-74
2023/05/24 01:06:59;;;;;;;10.05;9.05;;;;;;;9.80;100.00;95017.16;4963343;28;20497;-74
2023/05/24 01:09:33;;;;;;;9.30;8.00;;;;;;;9.90;100.00;95020.38;4963972;28;20022;-75
2023/05/24 01:12:14;;;;;;;7.72;7.13;;;;;;;9.93;100.00;95020.84;4962115;28;20548;-75
2023/05/24 01:14:40;;;;;;;7.28;6.68;;;;;;;9.86;100.00;95019.91;4946731;28;20390;-75
2023/05/24 01:17:13;;;;;;;7.93;7.03;;;;;;;9.74;100.00;95016.03;4962421;28;20073;-75
2023/05/24 01:19:58;;;;;;;8.35;7.65;;;;;;;9.61;100.00;95015.72;4964100;28;20023;-74
2023/05/24 01:22:52;;;;;;;8.30;7.65;;;;;;;9.56;100.00;95005.09;4963703;28;20097;-74
2023/05/24 01:25:44;;;;;;;7.25;6.55;;;;;;;9.70;100.00;95003.59;4944736;28;20034;-74
2023/05/24 01:28:10;;;;;;;8.77;7.82;;;;;;;9.73;100.00;94992.94;4963743;28;20109;-73
2023/05/24 01:30:37;;;;;;;10.07;9.27;;;;;;;9.75;100.00;94981.47;4945467;28;20031;-74
2023/05/24 01:33:03;;;;;;;9.73;8.85;;;;;;;9.72;100.00;94970.63;4962613;28;20129;-74
2023/05/24 01:35:28;;;;;;;11.45;10.45;;;;;;;9.74;100.00;94968.69;4963610;28;20034;-74
2023/05/24 01:37:53;;;;;;;9.45;8.57;;;;;;;9.77;100.00;94968.34;4961661;28;20023;-75
2023/05/24 01:40:19;;;;;;;10.23;9.32;;;;;;;9.66;100.00;94977.28;4963627;28;20528;-73
2023/05/24 01:42:51;;;;;;;12.48;11.18;;;;;;;9.64;100.00;94983.56;4961345;28;20382;-75
2023/05/24 01:45:40;;;;;;;10.70;9.80;;;;;;;9.59;100.00;95006.53;4963494;28;20034;-75
2023/05/24 01:48:18;;;;;;;;;;;;;;;9.56;100.00;95025.75;4945861;28;20889;-75
2023/05/24 01:51:00;;;;;;;11.20;9.60;;;;;;;9.34;100.00;95006.53;4960806;28;19914;-75
2023/05/24 01:53:31;;;;;;;11.05;9.95;;;;;;;9.33;100.00;94980.88;4963284;28;20027;-75
2023/05/24 01:56:00;;;;;;;10.55;9.55;;;;;;;8.94;100.00;94978.91;4961518;28;20027;-75
2023/05/24 01:58:25;;;;;;;10.77;9.07;;;;;;;9.20;100.00;95003.78;4945618;28;20062;-75
2023/05/24 02:00:52;;;;;;;14.70;9.23;;;;;;;9.21;100.00;95010.59;4961775;28;20040;-75
2023/05/24 02:03:18;;;;;;;13.48;9.82;;;;;;;9.35;100.00;95009.91;4945642;28;20030;-75
2023/05/24 02:05:44;;;;;;;9.50;8.60;;;;;;;9.41;100.00;95004.09;4962974;28;20393;-75
2023/05/24 02:08:11;;;;;;;9.23;8.43;;;;;;;9.32;100.00;94987.81;4961647;28;20377;-75
2023/05/24 02:10:38;;;;;;;15.30;8.52;;;;;;;9.24;100.00;94987.00;4963098;28;20061;-74
2023/05/24 02:13:04;;;;;;;9.75;8.93;;;;;;;9.09;100.00;95001.50;4961128;28;20062;-75
2023/05/24 02:15:30;;;;;;;9.10;8.30;;;;;;;8.99;100.00;95023.13;4962616;28;20709;-75
2023/05/24 02:17:56;;;;;;;9.68;8.82;;;;;;;9.05;100.00;95028.66;4960897;28;20085;-76
2023/05/24 02:20:22;;;;;;;9.60;8.55;;;;;;;9.13;100.00;95041.56;4962698;28;20027;-76
2023/05/24 02:22:48;;;;;;;9.02;8.07;;;;;;;9.10;100.00;95049.63;4962487;28;20424;-75
2023/05/24 02:25:13;;;;;;;8.57;7.75;;;;;;;9.02;100.00;95048.66;4961848;28;20034;-76
2023/05/24 02:27:40;;;;;;;10.18;9.27;;;;;;;8.79;100.00;95052.00;4962678;28;20556;-76
2023/05/24 02:30:07;;;;;;;9.25;8.35;;;;;;;8.86;100.00;95066.69;4961135;28;20027;-76
2023/05/24 02:32:33;;;;;;;10.10;9.20;;;;;;;8.83;100.00;95077.34;4963014;28;20062;-76
2023/05/24 02:35:00;;;;;;;9.45;8.52;;;;;;;9.03;100.00;95090.78;4960777;28;20026;-76
2023/05/24 02:37:26;;;;;;;10.60;9.63;;;;;;;8.97;100.00;95069.00;4962791;28;20074;-76
2023/05/24 02:39:52;;;;;;;9.93;9.13;;;;;;;9.06;100.00;95079.31;4961406;28;20114;-76
2023/05/24 02:42:18;;;;;;;10.07;8.80;;;;;;;9.00;100.00;95066.09;4962295;28;20110;-76
2023/05/24 02:44:46;;;;;;;8.85;8.20;;;;;;;9.00;100.00;95055.75;4943879;28;20558;-76
2023/05/24 02:47:12;;;;;;;9.82;8.93;;;;;;;9.14;100.00;95043.19;4960565;28;20035;-75
2023/05/24 02:49:38;;;;;;;9.75;8.85;;;;;;;8.85;100.00;95033.28;4962459;28;20041;-76
2023/05/24 02:52:04;;;;;;;10.25;7.82;;;;;;;8.90;100.00;95025.88;4960158;28;20054;-76
2023/05/24 02:54:29;;;;;;;9.82;9.02;;;;;;;8.95;100.00;95031.38;4962642;28;20479;-76
2023/05/24 02:56:56;;;;;;;9.85;8.93;;;;;;;9.08;100.00;95018.81;4960943;28;20018;-75
2023/05/24 02:59:22;;;;;;;11.18;10.18;;;;;;;9.06;100.00;95007.00;4962197;28;20475;-76
2023/05/24 03:01:48;;;;;;;11.05;9.95;;;;;;;9.12;100.00;95014.13;4961125;28;20046;-75
2023/05/24 03:04:13;;;;;;;10.45;9.55;;;;;;;9.04;100.00;95014.91;4961265;28;20038;-75
2023/05/24 03:06:39;;;;;;;13.75;10.48;;;;;;;9.05;100.00;95018.31;4962282;28;20496;-75
2023/05/24 03:09:05;;;;;;;11.63;10.50;;;;;;;9.13;100.00;95008.78;4960400;28;20037;-75
2023/05/24 03:11:30;;;;;;;10.32;9.43;;;;;;;9.19;100.00;94995.22;4962575;28;20031;-75
2023/05/24 03:13:56;;;;;;;11.00;9.90;;;;;;;9.33;100.00;94986.03;4960764;28;20031;-75
2023/05/24 03:16:21;;;;;;;12.85;11.57;;;;;;;9.26;100.00;94965.19;4961813;28;20041;-76
2023/05/24 03:18:49;;;;;;;20.58;17.92;;;;;;;9.19;100.00;94961.63;4960318;28;20029;-76
2023/05/24 03:21:15;;;;;;;17.42;15.57;;;;;;;9.31;100.00;94967.31;4962020;28;20027;-76
2023/05/24 03:23:40;;;;;;;9.20;8.35;;;;;;;9.30;100.00;94956.16;4961268;28;20033;-77
2023/05/24 03:26:06;;;;;;;8.43;7.82;;;;;;;9.15;100.00;94949.22;4960838;28;20034;-77
2023/05/24 03:28:32;;;;;;;10.32;7.88;;;;;;;9.25;100.00;94945.47;4961732;28;20267;-77
2023/05/24 03:30:58;;;;;;;9.73;8.80;;;;;;;9.32;100.00;94964.53;4960367;28;20112;-76
2023/05/24 03:33:23;;;;;;;8.48;7.88;;;;;;;9.64;100.00;94968.88;4961891;28;20030;-76
2023/05/24 03:35:49;;;;;;;9.57;7.32;;;;;;;10.08;100.00;94946.75;4960889;28;20045;-78
2023/05/24 03:38:15;;;;;;;7.82;7.22;;;;;;;11.20;100.00;94872.91;4961780;28;20551;-77
2023/05/24 03:40:40;;;;;;;6.82;6.18;;;;;;;11.82;100.00;94735.88;4960331;28;20823;-76
2023/05/24 03:43:05;;;;;;;6.55;6.03;;;;;;;13.00;100.00;94683.06;4957129;28;20608;-76
2023/05/24 03:45:31;;;;;;;7.78;7.05;;;;;;;14.21;100.00;94628.41;4960879;28;20417;-76
2023/05/24 03:47:57;;;;;;;17.42;15.75;;;;;;;15.13;100.00;94611.78;4960077;28;20504;-76
2023/05/24 03:50:22;;;;;;;13.02;11.73;;;;;;;15.88;100.00;94605.78;4961199;28;20844;-75
2023/05/24 03:52:48;;;;;;;13.23;12.02;;;;;;;16.40;100.00;94595.94;4959798;28;20027;-76
2023/05/24 03:55:14;;;;;;;13.43;12.23;;;;;;;16.85;93.62;94597.31;4961400;28;20082;-76
2023/05/24 03:57:41;;;;;;;11.48;10.48;;;;;;;17.12;92.77;94603.03;4961065;28;20042;-76
2023/05/24 04:00:07;;;;;;;10.05;9.15;;;;;;;17.92;85.44;94591.31;4964927;28;20097;-76
2023/05/24 04:02:33;;;;;;;7.80;7.20;;;;;;;18.09;82.32;94594.09;4956458;28;20027;-75
2023/05/24 04:04:58;;;;;;;37.53;6.82;;;;;;;18.66;78.83;94589.94;4958021;28;20041;-78
2023/05/24 04:07:23;;;;;;;25.10;6.30;;;;;;;18.70;74.79;94597.13;4958954;28;20019;-82
2023/05/24 04:09:49;;;;;;;8.55;5.57;;;;;;;19.29;70.11;94588.13;4959327;28;20081;-87
2023/05/24 04:12:14;;;;;;;8.35;6.10;;;;;;;20.60;69.10;94594.09;4964790;28;20019;-85
2023/05/24 04:14:40;;;;;;;9.13;6.18;;;;;;;19.84;69.10;94598.88;4962731;28;20037;-79
2023/05/24 04:17:06;;;;;;;7.70;5.38;;;;;;;18.78;74.42;94603.88;4965181;28;20033;-84
2023/05/24 04:19:32;;;;;;;4.93;4.30;;;;;;;19.15;73.67;94605.16;4963136;28;20050;-79
2023/05/24 04:21:57;;;;;;;5.10;4.80;;;;;;;20.76;67.86;94609.84;4964501;28;20066;-80
2023/05/24 04:24:23;;;;;;;4.47;4.18;;;;;;;19.88;66.42;94622.88;4964023;28;20031;-82
2023/05/24 04:26:49;;;;;;;5.07;4.60;;;;;;;19.39;67.68;94613.78;4963721;28;20037;-84
2023/05/24 04:29:14;;;;;;;4.80;4.40;;;;;;;19.43;69.96;94618.34;4951318;28;20030;-79
2023/05/24 04:31:42;;;;;;;4.80;4.40;;;;;;;20.63;63.30;94606.75;4962864;28;20078;-79
2023/05/24 04:34:08;;;;;;;4.65;4.13;;;;;;;20.37;63.37;94609.00;4964519;28;20093;-79
2023/05/24 04:36:34;;;;;;;4.30;4.00;;;;;;;20.83;61.49;94609.69;4963086;28;20042;-78
2023/05/24 04:39:03;;;;;;;16.63;4.00;;;;;;;21.31;59.78;94603.75;4964145;28;20861;-78
2023/05/24 04:41:34;;;;;;;5.53;4.55;;;;;;;22.08;56.75;94608.81;4963463;28;20030;-75
2023/05/24 04:43:59;;;;;;;6.10;4.40;;;;;;;22.32;58.65;94607.44;4963150;28;20045;-76
2023/05/24 04:46:26;;;;;;;7.13;5.00;;;;;;;21.68;60.25;94612.59;4964725;28;20066;-88
2023/05/24 04:48:51;;;;;;;7.55;5.25;;;;;;;21.13;66.04;94611.97;4963038;28;20485;-80
2023/05/24 04:51:17;;;;;;;5.70;5.30;;;;;;;21.75;61.49;94620.31;4964310;28;20030;-84
2023/05/24 04:53:42;;;;;;;7.20;5.70;;;;;;;20.47;64.63;94622.31;4962497;28;20022;-84
2023/05/24 04:56:08;;;;;;;7.15;6.47;;;;;;;20.86;67.02;94625.81;4946940;28;20034;-79
2023/05/24 04:58:33;;;;;;;5.72;5.25;;;;;;;20.86;65.83;94620.53;4962134;28;20130;-80
2023/05/24 05:01:00;;;;;;;5.55;5.05;;;;;;;20.58;68.32;94633.00;4963804;28;20121;-82
2023/05/24 05:03:26;;;;;;;8.68;6.20;;;;;;;22.63;59.76;94632.25;4963481;28;20041;-82
2023/05/24 05:05:52;;;;;;;7.03;5.45;;;;;;;22.41;59.55;94635.75;4961997;28;20038;-81
2023/05/24 05:08:18;;;;;;;5.40;4.90;;;;;;;22.08;60.04;94643.13;4963467;28;20046;-80
2023/05/24 05:10:44;;;;;;;5.53;5.00;;;;;;;22.27;59.17;94647.78;4962133;28;20045;-81
2023/05/24 05:13:09;;;;;;;4.93;4.53;;;;;;;23.86;56.11;94634.25;4963906;28;20560;-78
2023/05/24 05:15:35;;;;;;;4.43;3.90;;;;;;;24.06;52.37;94625.56;4961620;28;20042;-78
2023/05/24 05:18:00;;;;;;;4.65;4.18;;;;;;;23.66;53.75;94633.41;4963576;28;20035;-77
2023/05/24 05:20:26;;;;;;;4.47;3.92;;;;;;;24.14;52.27;94633.03;4963122;28;20034;-77
2023/05/24 05:22:51;;;;;;;4.10;3.80;;;;;;;25.46;50.66;94633.72;4962423;28;20030;-77
2023/05/24 05:25:17;;;;;;;6.15;4.28;;;;;;;25.71;49.87;94638.16;4963699;28;20081;-77
2023/05/24 05:27:42;;;;;;;4.03;3.72;;;;;;;25.21;49.25;94636.41;4962070;28;20055;-80
2023/05/24 05:30:08;;;;;;;4.53;4.13;;;;;;;25.46;48.84;94631.84;4963780;28;20542;-78
2023/05/24 05:32:34;;;;;;;4.63;3.95;;;;;;;25.01;50.08;94630.09;4961526;28;20540;-77
2023/05/24 05:35:00;;;;;;;4.88;4.30;;;;;;;25.49;47.98;94631.34;4963639;28;20780;-77
2023/05/24 05:37:25;;;;;;;11.43;4.05;;;;;;;26.16;47.21;94643.25;4962134;28;20515;-80
2023/05/24 05:39:51;;;;;;;6.22;4.10;;;;;;;28.19;44.26;94643.66;4962680;28;20031;-77
2023/05/24 05:42:16;;;;;;;4.55;4.15;;;;;;;26.97;46.54;94637.34;4962938;28;20590;-77
2023/05/24 05:44:42;;;;;;;4.75;4.38;;;;;;;27.65;45.50;94638.75;4961753;28;20038;-76
2023/05/24 05:47:08;;;;;;;5.55;5.03;;;;;;;28.20;44.63;94637.25;4963495;28;20109;-76
2023/05/24 05:49:35;;;;;;;5.10;4.45;;;;;;;28.96;43.60;94635.31;4961483;28;20070;-76
2023/05/24 05:52:04;;;;;;;4.50;4.07;;;;;;;30.06;41.63;94631.59;4962900;28;20045;-76
2023/05/24 05:54:30;;;;;;;4.35;4.05;;;;;;;29.48;40.46;94642.09;4961704;28;20126;-76
2023/05/24 05:56:56;;;;;;;4.57;4.25;;;;;;;30.30;39.79;94648.19;4962872;28;20110;-77
2023/05/24 05:59:21;;;;;;;4.78;4.38;;;;;;;29.49;40.71;94646.38;4962156;28;20055;-76
2023/05/24 06:01:47;;;;;;;5.00;4.60;;;;;;;30.09;38.47;94647.81;4961810;28;20065;-77
2023/05/24 06:04:16;;;;;;;6.83;5.43;;;;;;;31.07;36.64;94653.34;4962791;28;20034;-77
2023/05/24 06:06:44;;;;;;;4.40;4.10;;;;;;;33.08;34.83;94656.66;4961186;28;20281;-78
2023/05/24 06:09:09;;;;;;;5.65;4.75;;;;;;;31.76;36.98;94649.09;4963439;28;20035;-76
2023/05/24 06:11:35;;;;;;;6.07;5.47;;;;;;;31.35;37.82;94646.72;4961159;28;20408;-76
2023/05/24 06:14:01;;;;;;;4.63;4.32;;;;;;;31.25;36.11;94647.00;4960142;28;20125;-75
2023/05/24 06:16:27;;;;;;;5.45;4.65;;;;;;;31.91;35.66;94647.91;4960376;28;20170;-76
2023/05/24 06:18:53;;;;;;;4.88;4.57;;;;;;;31.35;36.13;94650.19;4961355;28;20373;-76
2023/05/24 06:21:18;;;;;;;6.60;5.90;;;;;;;31.07;37.30;94659.50;4961909;28;20041;-76
2023/05/24 06:23:44;;;;;;;6.80;5.50;;;;;;;28.85;41.46;94655.22;4961196;28;20650;-76
2023/05/24 06:26:09;;;;;;;12.55;5.70;;;;;;;26.89;44.47;94654.69;4962476;28;20548;-76
2023/05/24 06:28:35;;;;;;;8.32;5.68;;;;;;;26.64;46.67;94660.19;4958669;28;20049;-79
2023/05/24 06:31:02;;;;;;;6.03;5.03;;;;;;;27.36;44.77;94655.81;4962191;28;20161;-76
2023/05/24 06:33:28;;;;;;;4.97;4.63;;;;;;;26.57;47.65;94665.81;4943544;28;20038;-77
2023/05/24 06:35:53;;;;;;;5.00;4.60;;;;;;;27.39;45.57;94661.38;4962246;28;20035;-76
2023/05/24 06:38:19;;;;;;;5.20;4.70;;;;;;;29.93;40.72;94670.59;4961633;28;20558;-76
2023/05/24 06:40:44;;;;;;;4.82;4.43;;;;;;;30.10;37.68;94662.78;4960363;28;20034;-76
2023/05/24 06:43:10;;;;;;;5.32;4.45;;;;;;;31.23;37.41;94659.91;4961422;28;20043;-76
2023/05/24 06:45:36;;;;;;;7.43;4.68;;;;;;;31.10;37.74;94660.78;4955870;28;20031;-77
2023/05/24 06:48:01;;;;;;;6.13;4.30;;;;;;;31.70;37.41;94653.81;4961942;28;20039;-76
2023/05/24 06:50:27;;;;;;;5.68;5.18;;;;;;;30.21;39.61;94655.34;4960648;28;20033;-76
2023/05/24 06:52:52;;;;;;;5.85;4.85;;;;;;;26.54;44.49;94657.59;4962141;28;20027;-76
2023/05/24 06:55:18;;;;;;;6.30;5.15;;;;;;;27.12;44.97;94648.63;4960696;28;20544;-75
2023/05/24 06:57:44;;;;;;;9.10;4.93;;;;;;;27.09;44.50;94645.72;4960255;28;20026;-77
2023/05/24 07:00:11;;;;;;;6.68;5.28;;;;;;;27.02;46.53;94646.06;4960932;28;20026;-77
2023/05/24 07:02:40;;;;;;;6.32;5.50;;;;;;;26.52;46.48;94649.88;4960506;28;20031;-77
2023/05/24 07:05:12;;;;;;;6.05;4.93;;;;;;;26.38;47.65;94648.16;4961409;28;20062;-76
2023/05/24 07:07:39;;;;;;;5.25;4.85;;;;;;;26.76;46.75;94643.88;4958988;28;20642;-77
2023/05/24 07:10:07;;;;;;;6.70;5.07;;;;;;;26.22;47.75;94650.13;4958644;28;20588;-76
2023/05/24 07:12:32;;;;;;;8.20;5.05;;;;;;;25.60;47.72;94646.16;4960493;28;20030;-77
2023/05/24 07:14:58;;;;;;;5.50;5.10;;;;;;;25.57;50.49;94654.66;4961201;28;20080;-76
2023/05/24 07:17:23;;;;;;;9.10;4.95;;;;;;;25.37;50.41;94652.03;4959418;28;20034;-77
2023/05/24 07:19:49;;;;;;;5.70;4.88;;;;;;;25.18;50.52;94645.72;4960114;28;20045;-76
2023/05/24 07:22:14;;;;;;;5.50;5.00;;;;;;;25.18;51.21;94638.56;4960851;28;20497;-78
2023/05/24 07:24:40;;;;;;;6.47;4.72;;;;;;;25.03;51.50;94651.06;4959746;28;20049;-77
2023/05/24 07:27:05;;;;;;;5.70;5.03;;;;;;;25.05;50.30;94649.72;4961480;28;20019;-77
2023/05/24 07:29:31;;;;;;;7.38;4.97;;;;;;;25.23;50.97;94640.41;4960049;28;20030;-76
2023/05/24 07:31:56;;;;;;;5.95;4.90;;;;;;;24.83;52.60;94646.56;4961224;28;20034;-77
2023/05/24 07:34:22;;;;;;;5.43;4.45;;;;;;;25.05;54.88;94648.91;4960311;28;20030;-77
2023/05/24 07:36:48;;;;;;;6.07;4.38;;;;;;;25.24;54.10;94649.16;4961095;28;20536;-76
2023/05/24 07:39:14;;;;;;;5.60;4.70;;;;;;;25.06;53.30;94646.00;4960778;28;20646;-77
2023/05/24 07:41:40;;;;;;;6.47;4.32;;;;;;;25.56;53.12;94639.00;4959680;28;20025;-76
2023/05/24 07:44:06;;;;;;;5.88;4.38;;;;;;;25.37;51.66;94646.72;4961101;28;20030;-77
2023/05/24 07:46:31;;;;;;;5.97;4.90;;;;;;;24.45;53.54;94642.56;4959460;28;20039;-76
2023/05/24 07:48:57;;;;;;;5.22;4.53;;;;;;;24.98;53.31;94632.53;4961432;28;20493;-76
2023/05/24 07:51:22;;;;;;;5.80;3.60;;;;;;;25.14;55.12;94636.72;4959307;28;20034;-77
2023/05/24 07:53:48;;;;;;;5.78;3.88;;;;;;;25.06;53.17;94632.75;4961030;28;20034;-76
2023/05/24 07:56:14;;;;;;;4.03;3.63;;;;;;;25.69;53.15;94636.56;4960275;28;20031;-75
2023/05/24 07:58:40;;;;;;;5.70;3.72;;;;;;;25.78;51.52;94643.97;4953124;28;20043;-76
2023/05/24 08:01:06;;;;;;;7.20;4.13;;;;;;;25.50;52.85;94640.88;4961461;28;20409;-76
2023/05/24 08:03:33;;;;;;;5.18;4.32;;;;;;;25.41;53.87;94639.03;4959226;28;20035;-77
2023/05/24 08:05:59;;;;;;;5.22;4.78;;;;;;;25.29;54.66;94636.69;4961450;28;20516;-77
2023/05/24 08:08:24;;;;;;;6.00;4.20;;;;;;;25.42;54.59;94636.13;4958956;28;20019;-76
2023/05/24 08:10:50;;;;;;;5.68;4.55;;;;;;;24.81;53.46;94630.13;4960875;28;20881;-79
2023/05/24 08:13:15;;;;;;;7.43;4.45;;;;;;;24.80;56.50;94631.16;4952157;28;20027;-76
2023/05/24 08:15:41;;;;;;;4.63;4.22;;;;;;;25.52;54.16;94636.09;4960067;28;20074;-77
2023/05/24 08:18:06;;;;;;;5.40;4.90;;;;;;;25.43;54.33;94634.25;4956481;28;20042;-77
2023/05/24 08:20:34;;;;;;;5.20;4.57;;;;;;;25.32;55.27;94633.50;4958683;28;20390;-77
2023/05/24 08:23:00;;;;;;;5.43;4.10;;;;;;;25.20;52.84;94611.00;4959361;28;20033;-78
2023/05/24 08:25:26;;;;;;;6.30;4.10;;;;;;;25.35;52.77;94630.28;4955123;28;20042;-78
2023/05/24 08:27:51;;;;;;;6.18;3.40;;;;;;;25.26;51.72;94628.47;4956671;28;20022;-77
2023/05/24 08:30:17;;;;;;;4.00;3.65;;;;;;;25.20;51.20;94626.91;4958829;28;20078;-77
2023/05/24 08:32:42;;;;;;;9.10;4.32;;;;;;;25.14;53.16;94620.81;4960893;28;20027;-77
2023/05/24 08:35:08;;;;;;;4.90;3.67;;;;;;;25.38;53.02;94631.59;4958999;28;20447;-77
2023/05/24 08:37:33;;;;;;;4.90;4.30;;;;;;;25.56;54.87;94629.19;4939569;28;20034;-77
2023/05/24 08:39:58;;;;;;;5.70;4.25;;;;;;;25.24;54.95;94627.94;4959332;28;20085;-78
2023/05/24 08:42:25;;;;;;;7.13;4.50;;;;;;;25.44;55.88;94631.31;4957747;28;20030;-77
2023/05/24 08:44:58;;;;;;;5.18;4.65;;;;;;;25.09;57.30;94618.97;4963885;28;20118;-78
2023/05/24 08:47:24;;;;;;;8.45;5.07;;;;;;;25.36;56.63;94625.78;4945392;28;20031;-77
2023/05/24 08:49:50;;;;;;;5.20;3.80;;;;;;;25.52;55.45;94627.34;4947193;28;20570;-77
2023/05/24 08:52:16;;;;;;;5.68;4.38;;;;;;;25.44;56.30;94620.72;4963009;28;20029;-75
2023/05/24 08:54:42;;;;;;;4.97;3.92;;;;;;;25.57;56.04;94620.16;4946111;28;20023;-78
2023/05/24 08:57:09;;;;;;;4.20;3.88;;;;;;;25.52;55.65;94617.53;4946632;28;20027;-78
2023/05/24 08:59:35;;;;;;;5.93;3.60;;;;;;;25.73;54.90;94618.22;4928965;29;20059;-77
2023/05/24 09:02:01;;;;;;;4.82;3.20;;;;;;;25.76;54.71;94617.69;4944984;29;20082;-78
2023/05/24 09:04:27;;;;;;;3.95;3.58;;;;;;;25.51;53.05;94615.94;4943050;29;20035;-77
2023/05/24 09:06:54;;;;;;;6.53;3.55;;;;;;;25.63;52.80;94616.41;4927823;29;20425;-79
2023/05/24 09:09:21;;;;;;;6.25;3.42;;;;;;;25.76;48.28;94612.38;4941895;29;20035;-78
2023/05/24 09:11:48;;;;;;;3.53;3.22;;;;;;;25.75;49.91;94620.63;4944486;29;20026;-79
2023/05/24 09:14:14;;;;;;;3.20;3.00;;;;;;;26.03;51.38;94618.06;4944138;29;20086;-80
2023/05/24 09:16:40;;;;;;;5.43;2.83;;;;;;;25.92;47.35;94615.72;4926251;29;20027;-80
2023/05/24 09:19:05;;;;;;;6.65;3.10;;;;;;;25.79;48.00;94608.38;4926893;29;20375;-76
2023/05/24 09:21:31;;;;;;;4.13;3.03;;;;;;;25.74;49.07;94605.75;4922216;29;20139;-76
2023/05/24 09:23:57;;;;;;;7.43;2.88;;;;;;;25.90;50.35;94617.88;4939800;29;20036;-78
2023/05/24 09:26:24;;;;;;;4.93;2.63;;;;;;;25.84;49.40;94613.66;4925697;29;20019;-77
2023/05/24 09:28:53;;;;;;;4.53;3.28;;;;;;;25.94;51.10;94617.06;4944053;29;20687;-78
2023/05/24 09:31:31;;;;;;;4.63;3.05;;;;;;;26.03;47.38;94611.97;4943332;29;20581;-76
2023/05/24 09:33:56;;;;;;;4.28;3.22;;;;;;;26.10;46.07;94609.81;4943282;29;20698;-76
2023/05/24 09:36:22;;;;;;;4.70;2.55;;;;;;;25.87;46.79;94605.16;4944001;29;20508;-78
2023/05/24 09:38:48;;;;;;;4.72;2.88;;;;;;;26.21;50.48;94614.00;4935669;29;20037;-78
2023/05/24 09:41:14;;;;;;;3.17;2.88;;;;;;;26.17;49.85;94608.44;4920992;29;20027;-77
2023/05/24 09:43:48;;;;;;;3.35;2.92;;;;;;;26.22;51.59;94599.66;4940165;29;20027;-80
2023/05/24 09:46:18;;;;;;;3.55;3.00;;;;;;;26.14;49.37;94605.50;4942798;29;20071;-78
2023/05/24 09:49:13;;;;;;;7.18;3.05;;;;;;;25.93;47.14;94602.19;4941300;29;20506;-77
2023/05/24 09:51:38;;;;;;;6.03;3.33;;;;;;;26.22;48.54;94599.66;4917695;29;20039;-80
2023/05/24 09:54:04;;;;;;;3.92;2.95;;;;;;;26.33;47.71;94600.38;4940017;28;20039;-77
2023/05/24 09:56:32;;;;;;;5.47;2.72;;;;;;;26.40;49.58;94593.66;4940091;29;20042;-78
2023/05/24 09:58:57;;;;;;;4.53;2.90;;;;;;;25.83;48.40;94601.44;4953739;28;20054;-76
2023/05/24 10:01:24;;;;;;;3.70;3.00;;;;;;;26.06;47.72;94600.78;4961285;28;20504;-78
2023/05/24 10:03:57;;;;;;;4.07;3.03;;;;;;;26.49;47.79;94599.97;4961442;28;20447;-77
2023/05/24 10:06:23;;;;;;;4.30;2.70;;;;;;;26.15;46.79;94604.44;4961918;28;20460;-75
2023/05/24 10:08:56;;;;;;;2.88;2.55;;;;;;;25.89;46.09;94606.47;4961526;28;20034;-78
2023/05/24 10:11:21;;;;;;;3.33;2.70;;;;;;;25.95;43.31;94600.06;4963018;28;20019;-78
2023/05/24 10:13:48;;;;;;;7.32;2.72;;;;;;;26.27;46.53;94602.25;4961129;28;20041;-78
2023/05/24 10:16:14;;;;;;;4.93;3.10;;;;;;;26.23;44.65;94595.94;4962898;28;20183;-78
2023/05/24 10:18:40;;;;;;;3.00;2.78;;;;;;;26.21;46.17;94592.75;4960714;28;20048;-78
2023/05/24 10:21:08;;;;;;;3.67;3.08;;;;;;;25.79;42.12;94584.47;4962641;28;20034;-81
2023/05/24 10:23:37;;;;;;;;;;;;;;;25.47;42.64;94584.88;4945335;28;20023;-84
2023/05/24 10:26:08;;;;;;;3.45;2.40;;;;;;;26.26;44.88;94592.72;4961114;28;20442;-79
2023/05/24 10:28:39;;;;;;;3.10;2.80;;;;;;;26.47;43.72;94583.50;4945273;28;20029;-79
2023/05/24 10:31:17;;;;;;;5.05;2.90;;;;;;;25.77;42.53;94586.63;4928016;28;20073;-81
2023/05/24 10:33:44;;;;;;;4.28;2.72;;;;;;;25.47;43.33;94585.69;4944799;28;20030;-83
2023/05/24 10:36:12;;;;;;;4.03;2.75;;;;;;;25.35;42.43;94581.75;4945138;28;20467;-87
2023/05/24 10:38:39;;;;;;;15.15;6.10;;;;;;;25.68;44.85;94581.09;4944917;28;20915;-77
2023/05/24 10:41:06;;;;;;;4.15;2.97;;;;;;;25.90;47.19;94578.06;4961937;28;20070;-78
2023/05/24 10:43:34;;;;;;;3.83;2.80;;;;;;;25.92;45.32;94573.25;4960594;28;20023;-79
2023/05/24 10:46:01;;;;;;;4.50;2.83;;;;;;;25.89;44.59;94571.16;4962384;28;20362;-79
2023/05/24 10:48:27;;;;;;;4.65;3.03;;;;;;;26.15;44.47;94564.59;4960528;28;20042;-79
2023/05/24 10:50:52;;;;;;;6.45;3.30;;;;;;;25.75;44.97;94559.56;4962015;28;20867;-80
2023/05/24 10:53:21;;;;;;;3.17;2.70;;;;;;;25.91;44.59;94559.19;4960668;28;20062;-77
2023/05/24 10:56:08;;;;;;;2.92;2.50;;;;;;;26.20;47.24;94565.38;4961544;28;20034;-81
2023/05/24 10:58:36;;;;;;;4.60;2.88;;;;;;;25.75;43.48;94559.56;4962042;28;20086;-78
2023/05/24 11:01:02;;;;;;;2.90;2.45;;;;;;;26.05;44.60;94557.50;4960455;28;20043;-78
2023/05/24 11:03:34;;;;;;;4.43;2.70;;;;;;;26.08;45.70;94553.50;4961910;28;20043;-79
2023/05/24 11:06:00;;;;;;;3.00;2.42;;;;;;;26.16;43.70;94553.75;4959582;28;20042;-79
2023/05/24 11:08:36;;;;;;;2.70;2.50;;;;;;;25.37;45.13;94561.84;4962229;28;20027;-83
2023/05/24 11:11:05;;;;;;;3.38;2.80;;;;;;;25.44;45.43;94556.25;4943482;28;20521;-79
2023/05/24 11:13:31;;;;;;;4.07;2.78;;;;;;;25.98;42.89;94545.59;4960616;28;20515;-79
2023/05/24 11:15:57;;;;;;;3.10;2.80;;;;;;;26.15;41.31;94548.66;4944844;28;20130;-80
2023/05/24 11:18:23;;;;;;;5.97;2.60;;;;;;;25.76;42.61;94546.00;4959900;28;20114;-80
2023/05/24 11:20:48;;;;;;;4.07;2.80;;;;;;;25.74;43.97;94552.66;4961836;28;20035;-81
2023/05/24 11:23:15;;;;;;;3.05;2.80;;;;;;;26.00;42.47;94548.78;4960313;28;20105;-84
2023/05/24 11:25:41;;;;;;;4.88;2.83;;;;;;;25.53;42.22;94549.31;4961927;28;20034;-81
2023/05/24 11:28:10;;;;;;;3.42;2.80;;;;;;;25.49;44.22;94543.81;4960387;28;20014;-78
2023/05/24 11:30:44;;;;;;;4.28;2.50;;;;;;;26.22;45.59;94541.22;4960886;28;20031;-81